sensor_id;sensor_type;location;lat;lon;timestamp;temperature;humidity
60293;DHT22;52402;52.670;6.750;2023-05-07T00:01:08;13.60;99.90
60293;DHT22;52402;52.670;6.750;2023-05-07T00:03:34;13.60;99.90
60293;DHT22;52402;52.670;6.750;2023-05-07T00:06:00;13.60;99.90
60293;DHT22;52402;52.670;6.750;2023-05-07T00:08:26;13.60;99.90
60293;DHT22;52402;52.670;6.750;2023-05-07T00:10:51;13.50;99.90
60293;DHT22;52402;52.670;6.750;2023-05-07T00:13:17;13.50;99.90
60293;DHT22;52402;52.670;6.750;2023-05-07T00:15:42;13.50;99.90
60293;DHT22;52402;52.670;6.750;2023-05-07T00:18:08;13.50;99.90
60293;DHT22;52402;52.670;6.750;2023-05-07T00:20:33;13.50;99.90
60293;DHT22;52402;52.670;6.750;2023-05-07T00:22:59;13.50;99.90
60293;DHT22;52402;52.670;6.750;2023-05-07T00:25:25;13.50;99.90
60293;DHT22;52402;52.670;6.750;2023-05-07T00:27:50;13.50;99.90
60293;DHT22;52402;52.670;6.750;2023-05-07T00:30:16;13.50;99.90
60293;DHT22;52402;52.670;6.750;2023-05-07T00:32:41;13.50;99.90
60293;DHT22;52402;52.670;6.750;2023-05-07T00:35:07;13.40;99.90
60293;DHT22;52402;52.670;6.750;2023-05-07T00:37:33;13.40;99.90
60293;DHT22;52402;52.670;6.750;2023-05-07T00:39:59;13.40;99.90
60293;DHT22;52402;52.670;6.750;2023-05-07T00:42:25;13.40;99.90
60293;DHT22;52402;52.670;6.750;2023-05-07T00:44:50;13.40;99.90
60293;DHT22;52402;52.670;6.750;2023-05-07T00:47:17;13.30;99.90
60293;DHT22;52402;52.670;6.750;2023-05-07T00:49:44;13.30;99.90
60293;DHT22;52402;52.670;6.750;2023-05-07T00:52:13;13.30;99.90
60293;DHT22;52402;52.670;6.750;2023-05-07T00:54:40;13.30;99.90
60293;DHT22;52402;52.670;6.750;2023-05-07T00:57:06;13.30;99.90
60293;DHT22;52402;52.670;6.750;2023-05-07T00:59:32;13.30;99.90
60293;DHT22;52402;52.670;6.750;2023-05-07T01:01:59;13.30;99.90
60293;DHT22;52402;52.670;6.750;2023-05-07T01:04:25;13.20;99.90
60293;DHT22;52402;52.670;6.750;2023-05-07T01:06:53;13.20;99.90
60293;DHT22;52402;52.670;6.750;2023-05-07T01:09:21;13.10;99.90
60293;DHT22;52402;52.670;6.750;2023-05-07T01:11:49;13.10;99.90
60293;DHT22;52402;52.670;6.750;2023-05-07T01:14:15;13.10;99.90
60293;DHT22;52402;52.670;6.750;2023-05-07T01:16:41;13.10;99.90
60293;DHT22;52402;52.670;6.750;2023-05-07T01:19:08;13.10;99.90
60293;DHT22;52402;52.670;6.750;2023-05-07T01:21:37;13.10;99.90
60293;DHT22;52402;52.670;6.750;2023-05-07T01:24:04;13.10;99.90
60293;DHT22;52402;52.670;6.750;2023-05-07T01:26:30;13.00;99.90
60293;DHT22;52402;52.670;6.750;2023-05-07T01:28:56;13.00;99.90
60293;DHT22;52402;52.670;6.750;2023-05-07T01:31:23;12.90;99.90
60293;DHT22;52402;52.670;6.750;2023-05-07T01:33:49;12.90;99.90
60293;DHT22;52402;52.670;6.750;2023-05-07T01:36:17;12.80;99.90
60293;DHT22;52402;52.670;6.750;2023-05-07T01:38:44;12.70;99.90
60293;DHT22;52402;52.670;6.750;2023-05-07T01:41:11;12.80;99.90
60293;DHT22;52402;52.670;6.750;2023-05-07T01:43:40;12.70;99.90
60293;DHT22;52402;52.670;6.750;2023-05-07T01:46:07;12.70;99.90
60293;DHT22;52402;52.670;6.750;2023-05-07T01:48:35;12.70;99.90
60293;DHT22;52402;52.670;6.750;2023-05-07T01:51:02;12.70;99.90
60293;DHT22;52402;52.670;6.750;2023-05-07T01:53:28;12.60;99.90
60293;DHT22;52402;52.670;6.750;2023-05-07T01:55:57;12.60;99.90
60293;DHT22;52402;52.670;6.750;2023-05-07T01:58:22;12.60;99.90
60293;DHT22;52402;52.670;6.750;2023-05-07T02:00:48;12.60;99.90
60293;DHT22;52402;52.670;6.750;2023-05-07T02:03:13;12.60;99.90
60293;DHT22;52402;52.670;6.750;2023-05-07T02:05:39;12.50;99.90
60293;DHT22;52402;52.670;6.750;2023-05-07T02:08:05;12.50;99.90
60293;DHT22;52402;52.670;6.750;2023-05-07T02:10:30;12.40;99.90
60293;DHT22;52402;52.670;6.750;2023-05-07T02:12:56;12.40;99.90
60293;DHT22;52402;52.670;6.750;2023-05-07T02:15:22;12.40;99.90
60293;DHT22;52402;52.670;6.750;2023-05-07T02:18:00;12.30;99.90
60293;DHT22;52402;52.670;6.750;2023-05-07T02:20:26;12.30;99.90
60293;DHT22;52402;52.670;6.750;2023-05-07T02:22:52;12.30;99.90
60293;DHT22;52402;52.670;6.750;2023-05-07T02:25:18;12.20;99.90
60293;DHT22;52402;52.670;6.750;2023-05-07T02:27:43;12.20;99.90
60293;DHT22;52402;52.670;6.750;2023-05-07T02:30:10;12.20;99.90
60293;DHT22;52402;52.670;6.750;2023-05-07T02:32:35;12.20;99.90
60293;DHT22;52402;52.670;6.750;2023-05-07T02:35:01;12.10;99.90
60293;DHT22;52402;52.670;6.750;2023-05-07T02:37:26;12.10;99.90
60293;DHT22;52402;52.670;6.750;2023-05-07T02:39:52;12.00;99.90
60293;DHT22;52402;52.670;6.750;2023-05-07T02:42:18;12.00;99.90
60293;DHT22;52402;52.670;6.750;2023-05-07T02:44:43;12.00;99.90
60293;DHT22;52402;52.670;6.750;2023-05-07T02:47:09;12.00;99.90
60293;DHT22;52402;52.670;6.750;2023-05-07T02:49:35;11.90;99.90
60293;DHT22;52402;52.670;6.750;2023-05-07T02:52:01;11.90;99.90
60293;DHT22;52402;52.670;6.750;2023-05-07T02:54:26;11.90;99.90
60293;DHT22;52402;52.670;6.750;2023-05-07T02:56:52;11.90;99.90
60293;DHT22;52402;52.670;6.750;2023-05-07T02:59:18;11.90;99.90
60293;DHT22;52402;52.670;6.750;2023-05-07T03:01:43;11.90;99.90
60293;DHT22;52402;52.670;6.750;2023-05-07T03:04:10;11.80;99.90
60293;DHT22;52402;52.670;6.750;2023-05-07T03:06:36;11.80;99.90
60293;DHT22;52402;52.670;6.750;2023-05-07T03:09:02;11.80;99.90
60293;DHT22;52402;52.670;6.750;2023-05-07T03:11:28;11.80;99.90
60293;DHT22;52402;52.670;6.750;2023-05-07T03:13:54;11.70;99.90
60293;DHT22;52402;52.670;6.750;2023-05-07T03:16:19;11.70;99.90
60293;DHT22;52402;52.670;6.750;2023-05-07T03:18:45;11.70;99.90
60293;DHT22;52402;52.670;6.750;2023-05-07T03:21:11;11.70;99.90
60293;DHT22;52402;52.670;6.750;2023-05-07T03:23:36;11.60;99.90
60293;DHT22;52402;52.670;6.750;2023-05-07T03:26:02;11.60;99.90
60293;DHT22;52402;52.670;6.750;2023-05-07T03:28:27;11.60;99.90
60293;DHT22;52402;52.670;6.750;2023-05-07T03:30:53;11.60;99.90
60293;DHT22;52402;52.670;6.750;2023-05-07T03:33:19;11.60;99.90
60293;DHT22;52402;52.670;6.750;2023-05-07T03:35:44;11.60;99.90
60293;DHT22;52402;52.670;6.750;2023-05-07T03:38:10;11.60;99.90
60293;DHT22;52402;52.670;6.750;2023-05-07T03:40:35;11.60;99.90
60293;DHT22;52402;52.670;6.750;2023-05-07T03:43:01;11.60;99.90
60293;DHT22;52402;52.670;6.750;2023-05-07T03:45:26;11.60;99.90
60293;DHT22;52402;52.670;6.750;2023-05-07T03:47:52;11.50;99.90
60293;DHT22;52402;52.670;6.750;2023-05-07T03:50:18;11.50;99.90
60293;DHT22;52402;52.670;6.750;2023-05-07T03:52:43;11.50;99.90
60293;DHT22;52402;52.670;6.750;2023-05-07T03:55:09;11.50;99.90
60293;DHT22;52402;52.670;6.750;2023-05-07T03:57:35;11.50;99.90
60293;DHT22;52402;52.670;6.750;2023-05-07T04:00:01;11.50;99.90
60293;DHT22;52402;52.670;6.750;2023-05-07T04:02:26;11.50;99.90
60293;DHT22;52402;52.670;6.750;2023-05-07T04:04:52;11.50;99.90
60293;DHT22;52402;52.670;6.750;2023-05-07T04:07:17;11.50;99.90
60293;DHT22;52402;52.670;6.750;2023-05-07T04:09:43;11.50;99.90
60293;DHT22;52402;52.670;6.750;2023-05-07T04:12:08;11.40;99.90
60293;DHT22;52402;52.670;6.750;2023-05-07T04:14:34;11.40;99.90
60293;DHT22;52402;52.670;6.750;2023-05-07T04:17:00;11.40;99.90
60293;DHT22;52402;52.670;6.750;2023-05-07T04:19:26;11.40;99.90
60293;DHT22;52402;52.670;6.750;2023-05-07T04:21:51;11.40;99.90
60293;DHT22;52402;52.670;6.750;2023-05-07T04:24:17;11.40;99.90
60293;DHT22;52402;52.670;6.750;2023-05-07T04:26:42;11.50;99.90
60293;DHT22;52402;52.670;6.750;2023-05-07T04:29:08;11.50;99.90
60293;DHT22;52402;52.670;6.750;2023-05-07T04:31:33;11.50;99.90
60293;DHT22;52402;52.670;6.750;2023-05-07T04:33:59;11.50;99.90
60293;DHT22;52402;52.670;6.750;2023-05-07T04:36:25;11.50;99.90
60293;DHT22;52402;52.670;6.750;2023-05-07T04:38:53;11.50;99.90
60293;DHT22;52402;52.670;6.750;2023-05-07T04:41:19;11.50;99.90
60293;DHT22;52402;52.670;6.750;2023-05-07T04:43:44;11.60;99.90
60293;DHT22;52402;52.670;6.750;2023-05-07T04:46:10;11.50;99.90
60293;DHT22;52402;52.670;6.750;2023-05-07T04:48:36;11.50;99.90
60293;DHT22;52402;52.670;6.750;2023-05-07T04:51:02;11.50;99.90
60293;DHT22;52402;52.670;6.750;2023-05-07T04:53:27;11.60;99.90
60293;DHT22;52402;52.670;6.750;2023-05-07T04:55:57;11.50;99.90
60293;DHT22;52402;52.670;6.750;2023-05-07T04:58:23;11.60;99.90
60293;DHT22;52402;52.670;6.750;2023-05-07T05:00:49;11.60;99.90
60293;DHT22;52402;52.670;6.750;2023-05-07T05:03:15;11.60;99.90
60293;DHT22;52402;52.670;6.750;2023-05-07T05:05:40;11.60;99.90
60293;DHT22;52402;52.670;6.750;2023-05-07T05:08:06;11.60;99.90
60293;DHT22;52402;52.670;6.750;2023-05-07T05:10:31;11.60;99.90
60293;DHT22;52402;52.670;6.750;2023-05-07T05:12:57;11.60;99.90
60293;DHT22;52402;52.670;6.750;2023-05-07T05:15:23;11.60;99.90
60293;DHT22;52402;52.670;6.750;2023-05-07T05:17:48;11.70;99.90
60293;DHT22;52402;52.670;6.750;2023-05-07T05:20:14;11.70;99.90
60293;DHT22;52402;52.670;6.750;2023-05-07T05:22:41;11.70;99.90
60293;DHT22;52402;52.670;6.750;2023-05-07T05:25:07;11.80;99.90
60293;DHT22;52402;52.670;6.750;2023-05-07T05:27:33;11.80;99.90
60293;DHT22;52402;52.670;6.750;2023-05-07T05:29:59;11.80;99.90
60293;DHT22;52402;52.670;6.750;2023-05-07T05:32:24;11.90;99.90
60293;DHT22;52402;52.670;6.750;2023-05-07T05:34:51;11.90;99.90
60293;DHT22;52402;52.670;6.750;2023-05-07T05:37:16;11.90;99.90
60293;DHT22;52402;52.670;6.750;2023-05-07T05:39:42;11.90;99.90
60293;DHT22;52402;52.670;6.750;2023-05-07T05:42:07;11.90;99.90
60293;DHT22;52402;52.670;6.750;2023-05-07T05:44:33;11.90;99.90
60293;DHT22;52402;52.670;6.750;2023-05-07T05:46:59;11.90;99.90
60293;DHT22;52402;52.670;6.750;2023-05-07T05:49:25;12.00;99.90
60293;DHT22;52402;52.670;6.750;2023-05-07T05:51:51;12.00;99.90
60293;DHT22;52402;52.670;6.750;2023-05-07T05:54:16;12.00;99.90
60293;DHT22;52402;52.670;6.750;2023-05-07T05:56:42;12.00;99.90
60293;DHT22;52402;52.670;6.750;2023-05-07T05:59:08;12.10;99.90
60293;DHT22;52402;52.670;6.750;2023-05-07T06:01:33;12.10;99.90
60293;DHT22;52402;52.670;6.750;2023-05-07T06:03:59;12.10;99.90
60293;DHT22;52402;52.670;6.750;2023-05-07T06:06:25;12.20;99.90
60293;DHT22;52402;52.670;6.750;2023-05-07T06:08:51;12.20;99.90
60293;DHT22;52402;52.670;6.750;2023-05-07T06:11:16;12.20;99.90
60293;DHT22;52402;52.670;6.750;2023-05-07T06:13:42;12.20;99.90
60293;DHT22;52402;52.670;6.750;2023-05-07T06:16:08;12.20;99.90
60293;DHT22;52402;52.670;6.750;2023-05-07T06:18:33;12.30;99.90
60293;DHT22;52402;52.670;6.750;2023-05-07T06:21:01;12.30;99.90
60293;DHT22;52402;52.670;6.750;2023-05-07T06:23:27;12.30;99.90
60293;DHT22;52402;52.670;6.750;2023-05-07T06:25:53;12.30;99.90
60293;DHT22;52402;52.670;6.750;2023-05-07T06:28:18;12.40;99.90
60293;DHT22;52402;52.670;6.750;2023-05-07T06:30:44;12.40;99.90
60293;DHT22;52402;52.670;6.750;2023-05-07T06:33:10;12.40;99.90
60293;DHT22;52402;52.670;6.750;2023-05-07T06:35:36;12.50;99.90
60293;DHT22;52402;52.670;6.750;2023-05-07T06:38:01;12.50;99.90
60293;DHT22;52402;52.670;6.750;2023-05-07T06:40:27;12.50;99.90
60293;DHT22;52402;52.670;6.750;2023-05-07T06:42:53;12.50;99.90
60293;DHT22;52402;52.670;6.750;2023-05-07T06:45:19;12.60;99.90
60293;DHT22;52402;52.670;6.750;2023-05-07T06:47:45;12.60;99.90
60293;DHT22;52402;52.670;6.750;2023-05-07T06:50:11;12.60;99.90
60293;DHT22;52402;52.670;6.750;2023-05-07T06:52:36;12.70;99.90
60293;DHT22;52402;52.670;6.750;2023-05-07T06:55:02;12.70;99.90
60293;DHT22;52402;52.670;6.750;2023-05-07T06:57:28;12.70;99.90
60293;DHT22;52402;52.670;6.750;2023-05-07T06:59:53;12.70;99.90
60293;DHT22;52402;52.670;6.750;2023-05-07T07:02:19;12.70;99.90
60293;DHT22;52402;52.670;6.750;2023-05-07T07:04:44;12.70;99.90
60293;DHT22;52402;52.670;6.750;2023-05-07T07:07:10;12.70;99.90
60293;DHT22;52402;52.670;6.750;2023-05-07T07:09:36;12.70;99.90
60293;DHT22;52402;52.670;6.750;2023-05-07T07:12:01;12.80;99.90
60293;DHT22;52402;52.670;6.750;2023-05-07T07:14:27;12.80;99.90
60293;DHT22;52402;52.670;6.750;2023-05-07T07:16:52;12.90;99.90
60293;DHT22;52402;52.670;6.750;2023-05-07T07:19:18;12.90;99.90
60293;DHT22;52402;52.670;6.750;2023-05-07T07:21:45;13.00;99.90
60293;DHT22;52402;52.670;6.750;2023-05-07T07:24:21;13.00;99.90
60293;DHT22;52402;52.670;6.750;2023-05-07T07:26:49;13.00;99.90
60293;DHT22;52402;52.670;6.750;2023-05-07T07:29:14;13.10;99.90
60293;DHT22;52402;52.670;6.750;2023-05-07T07:31:40;13.20;99.90
60293;DHT22;52402;52.670;6.750;2023-05-07T07:34:06;13.30;99.90
60293;DHT22;52402;52.670;6.750;2023-05-07T07:36:31;13.30;99.90
60293;DHT22;52402;52.670;6.750;2023-05-07T07:38:57;13.40;99.90
60293;DHT22;52402;52.670;6.750;2023-05-07T07:41:23;13.40;99.90
60293;DHT22;52402;52.670;6.750;2023-05-07T07:43:48;13.50;99.90
60293;DHT22;52402;52.670;6.750;2023-05-07T07:46:14;13.60;99.90
60293;DHT22;52402;52.670;6.750;2023-05-07T07:48:39;13.60;99.90
60293;DHT22;52402;52.670;6.750;2023-05-07T07:51:05;13.80;99.90
60293;DHT22;52402;52.670;6.750;2023-05-07T07:53:30;14.10;99.90
60293;DHT22;52402;52.670;6.750;2023-05-07T07:55:56;14.20;99.90
60293;DHT22;52402;52.670;6.750;2023-05-07T07:58:22;14.40;99.90
60293;DHT22;52402;52.670;6.750;2023-05-07T08:00:47;14.40;99.90
60293;DHT22;52402;52.670;6.750;2023-05-07T08:03:14;14.50;99.90
60293;DHT22;52402;52.670;6.750;2023-05-07T08:05:41;14.50;99.90
60293;DHT22;52402;52.670;6.750;2023-05-07T08:08:08;14.60;99.90
60293;DHT22;52402;52.670;6.750;2023-05-07T08:10:34;14.70;99.90
60293;DHT22;52402;52.670;6.750;2023-05-07T08:13:04;14.80;99.90
60293;DHT22;52402;52.670;6.750;2023-05-07T08:15:30;15.00;99.90
60293;DHT22;52402;52.670;6.750;2023-05-07T08:17:57;15.20;99.90
60293;DHT22;52402;52.670;6.750;2023-05-07T08:20:24;15.40;99.90
60293;DHT22;52402;52.670;6.750;2023-05-07T08:22:51;15.60;99.90
60293;DHT22;52402;52.670;6.750;2023-05-07T08:25:16;15.80;99.90
60293;DHT22;52402;52.670;6.750;2023-05-07T08:27:42;15.90;99.90
60293;DHT22;52402;52.670;6.750;2023-05-07T08:30:08;16.00;99.90
60293;DHT22;52402;52.670;6.750;2023-05-07T08:32:34;15.90;99.90
60293;DHT22;52402;52.670;6.750;2023-05-07T08:35:00;15.90;99.90
60293;DHT22;52402;52.670;6.750;2023-05-07T08:37:25;16.00;99.90
60293;DHT22;52402;52.670;6.750;2023-05-07T08:39:51;16.10;99.90
60293;DHT22;52402;52.670;6.750;2023-05-07T08:42:17;16.20;99.90
60293;DHT22;52402;52.670;6.750;2023-05-07T08:44:45;16.30;99.90
60293;DHT22;52402;52.670;6.750;2023-05-07T08:47:12;16.30;99.90
60293;DHT22;52402;52.670;6.750;2023-05-07T08:49:38;16.30;99.90
60293;DHT22;52402;52.670;6.750;2023-05-07T08:52:04;16.40;99.90
60293;DHT22;52402;52.670;6.750;2023-05-07T08:54:30;16.60;99.90
60293;DHT22;52402;52.670;6.750;2023-05-07T08:56:56;16.80;99.90
60293;DHT22;52402;52.670;6.750;2023-05-07T08:59:22;16.80;99.90
60293;DHT22;52402;52.670;6.750;2023-05-07T09:01:48;16.90;99.90
60293;DHT22;52402;52.670;6.750;2023-05-07T09:04:13;17.00;99.90
60293;DHT22;52402;52.670;6.750;2023-05-07T09:06:39;17.10;99.90
60293;DHT22;52402;52.670;6.750;2023-05-07T09:09:07;17.10;99.90
60293;DHT22;52402;52.670;6.750;2023-05-07T09:11:33;17.20;99.90
60293;DHT22;52402;52.670;6.750;2023-05-07T09:13:58;17.20;99.90
60293;DHT22;52402;52.670;6.750;2023-05-07T09:16:28;17.30;99.90
60293;DHT22;52402;52.670;6.750;2023-05-07T09:18:54;17.50;99.90
60293;DHT22;52402;52.670;6.750;2023-05-07T09:21:21;17.60;99.90
60293;DHT22;52402;52.670;6.750;2023-05-07T09:23:52;17.80;99.90
60293;DHT22;52402;52.670;6.750;2023-05-07T09:26:18;17.80;99.90
60293;DHT22;52402;52.670;6.750;2023-05-07T09:28:46;17.70;99.90
60293;DHT22;52402;52.670;6.750;2023-05-07T09:31:12;17.60;99.90
60293;DHT22;52402;52.670;6.750;2023-05-07T09:33:38;17.80;99.90
60293;DHT22;52402;52.670;6.750;2023-05-07T09:36:05;17.90;99.90
60293;DHT22;52402;52.670;6.750;2023-05-07T09:38:35;18.10;99.90
60293;DHT22;52402;52.670;6.750;2023-05-07T09:41:12;18.30;99.90
60293;DHT22;52402;52.670;6.750;2023-05-07T09:43:39;18.20;99.90
60293;DHT22;52402;52.670;6.750;2023-05-07T09:46:12;18.30;99.90
60293;DHT22;52402;52.670;6.750;2023-05-07T09:48:39;18.30;99.90
60293;DHT22;52402;52.670;6.750;2023-05-07T09:51:25;18.50;99.90
60293;DHT22;52402;52.670;6.750;2023-05-07T09:53:53;18.60;99.90
60293;DHT22;52402;52.670;6.750;2023-05-07T09:56:19;18.70;99.90
60293;DHT22;52402;52.670;6.750;2023-05-07T09:58:46;18.70;99.90
60293;DHT22;52402;52.670;6.750;2023-05-07T10:01:12;18.90;99.90
60293;DHT22;52402;52.670;6.750;2023-05-07T10:03:40;19.00;99.90
60293;DHT22;52402;52.670;6.750;2023-05-07T10:06:09;19.10;99.90
60293;DHT22;52402;52.670;6.750;2023-05-07T10:08:36;19.20;99.90
60293;DHT22;52402;52.670;6.750;2023-05-07T10:11:04;19.10;99.90
60293;DHT22;52402;52.670;6.750;2023-05-07T10:13:30;19.00;99.90
60293;DHT22;52402;52.670;6.750;2023-05-07T10:15:56;18.90;99.90
60293;DHT22;52402;52.670;6.750;2023-05-07T10:18:22;19.00;99.90
60293;DHT22;52402;52.670;6.750;2023-05-07T10:20:50;18.90;99.90
60293;DHT22;52402;52.670;6.750;2023-05-07T10:23:20;19.10;99.90
60293;DHT22;52402;52.670;6.750;2023-05-07T10:25:48;19.20;99.90
60293;DHT22;52402;52.670;6.750;2023-05-07T10:28:15;19.30;99.90
60293;DHT22;52402;52.670;6.750;2023-05-07T10:30:52;19.40;99.90
60293;DHT22;52402;52.670;6.750;2023-05-07T10:33:27;19.60;99.90
60293;DHT22;52402;52.670;6.750;2023-05-07T10:35:58;19.40;99.90
60293;DHT22;52402;52.670;6.750;2023-05-07T10:38:26;19.30;99.90
60293;DHT22;52402;52.670;6.750;2023-05-07T10:40:52;19.00;99.90
60293;DHT22;52402;52.670;6.750;2023-05-07T10:43:18;18.80;99.90
60293;DHT22;52402;52.670;6.750;2023-05-07T10:45:43;18.80;99.90
60293;DHT22;52402;52.670;6.750;2023-05-07T10:50:43;19.00;99.90
60293;DHT22;52402;52.670;6.750;2023-05-07T10:55:50;19.30;99.90
60293;DHT22;52402;52.670;6.750;2023-05-07T10:58:29;19.40;99.90
60293;DHT22;52402;52.670;6.750;2023-05-07T11:01:02;19.60;99.90
60293;DHT22;52402;52.670;6.750;2023-05-07T11:03:28;19.80;99.90
60293;DHT22;52402;52.670;6.750;2023-05-07T11:06:14;19.90;99.90
60293;DHT22;52402;52.670;6.750;2023-05-07T11:08:53;19.90;99.90
60293;DHT22;52402;52.670;6.750;2023-05-07T11:11:19;19.90;99.90
60293;DHT22;52402;52.670;6.750;2023-05-07T11:13:48;20.00;99.90
60293;DHT22;52402;52.670;6.750;2023-05-07T11:16:22;20.10;99.90
60293;DHT22;52402;52.670;6.750;2023-05-07T11:18:53;20.20;99.90
60293;DHT22;52402;52.670;6.750;2023-05-07T11:21:38;20.40;99.90
60293;DHT22;52402;52.670;6.750;2023-05-07T11:24:04;20.50;99.90
60293;DHT22;52402;52.670;6.750;2023-05-07T11:26:44;20.60;99.90
60293;DHT22;52402;52.670;6.750;2023-05-07T11:29:22;20.60;99.90
60293;DHT22;52402;52.670;6.750;2023-05-07T11:31:52;20.70;99.90
60293;DHT22;52402;52.670;6.750;2023-05-07T11:34:25;20.60;99.90
60293;DHT22;52402;52.670;6.750;2023-05-07T11:36:51;20.60;99.90
60293;DHT22;52402;52.670;6.750;2023-05-07T11:39:31;20.60;99.90
60293;DHT22;52402;52.670;6.750;2023-05-07T11:42:01;20.50;99.90
60293;DHT22;52402;52.670;6.750;2023-05-07T11:44:44;20.60;99.90
60293;DHT22;52402;52.670;6.750;2023-05-07T11:47:11;20.70;99.90
60293;DHT22;52402;52.670;6.750;2023-05-07T11:49:37;20.80;99.90
60293;DHT22;52402;52.670;6.750;2023-05-07T11:52:02;20.90;99.90
60293;DHT22;52402;52.670;6.750;2023-05-07T11:54:38;20.90;99.90
60293;DHT22;52402;52.670;6.750;2023-05-07T11:57:03;21.00;99.90
60293;DHT22;52402;52.670;6.750;2023-05-07T11:59:29;21.20;99.90
60293;DHT22;52402;52.670;6.750;2023-05-07T12:01:58;21.50;99.90
60293;DHT22;52402;52.670;6.750;2023-05-07T12:04:24;21.70;99.90
60293;DHT22;52402;52.670;6.750;2023-05-07T12:06:54;21.70;99.90
60293;DHT22;52402;52.670;6.750;2023-05-07T12:09:21;21.90;99.90
60293;DHT22;52402;52.670;6.750;2023-05-07T12:11:47;22.10;99.90
60293;DHT22;52402;52.670;6.750;2023-05-07T12:14:13;22.10;99.90
60293;DHT22;52402;52.670;6.750;2023-05-07T12:16:40;22.30;99.90
60293;DHT22;52402;52.670;6.750;2023-05-07T12:19:06;22.40;99.90
60293;DHT22;52402;52.670;6.750;2023-05-07T12:21:34;22.50;99.90
60293;DHT22;52402;52.670;6.750;2023-05-07T12:24:01;22.60;99.90
60293;DHT22;52402;52.670;6.750;2023-05-07T12:26:27;22.50;99.90
60293;DHT22;52402;52.670;6.750;2023-05-07T12:28:52;22.70;99.90
60293;DHT22;52402;52.670;6.750;2023-05-07T12:31:18;22.50;99.90
60293;DHT22;52402;52.670;6.750;2023-05-07T12:33:44;22.50;99.90
60293;DHT22;52402;52.670;6.750;2023-05-07T12:36:12;22.50;99.90
60293;DHT22;52402;52.670;6.750;2023-05-07T12:38:39;22.40;99.90
60293;DHT22;52402;52.670;6.750;2023-05-07T12:41:07;22.50;99.90
60293;DHT22;52402;52.670;6.750;2023-05-07T12:43:33;22.40;99.90
60293;DHT22;52402;52.670;6.750;2023-05-07T12:46:01;22.20;99.90
60293;DHT22;52402;52.670;6.750;2023-05-07T12:48:27;22.00;99.90
60293;DHT22;52402;52.670;6.750;2023-05-07T12:50:53;21.80;99.90
60293;DHT22;52402;52.670;6.750;2023-05-07T12:53:21;21.70;99.90
60293;DHT22;52402;52.670;6.750;2023-05-07T12:55:50;21.50;99.90
60293;DHT22;52402;52.670;6.750;2023-05-07T12:58:20;21.40;99.90
60293;DHT22;52402;52.670;6.750;2023-05-07T13:00:50;21.30;99.90
60293;DHT22;52402;52.670;6.750;2023-05-07T13:03:23;21.20;99.90
60293;DHT22;52402;52.670;6.750;2023-05-07T13:05:49;21.20;99.90
60293;DHT22;52402;52.670;6.750;2023-05-07T13:08:27;21.30;99.90
60293;DHT22;52402;52.670;6.750;2023-05-07T13:10:52;21.50;99.90
60293;DHT22;52402;52.670;6.750;2023-05-07T13:13:21;21.60;99.90
60293;DHT22;52402;52.670;6.750;2023-05-07T13:15:47;21.60;99.90
60293;DHT22;52402;52.670;6.750;2023-05-07T13:18:13;21.60;99.90
60293;DHT22;52402;52.670;6.750;2023-05-07T13:20:39;21.80;99.90
60293;DHT22;52402;52.670;6.750;2023-05-07T13:23:05;21.90;99.90
60293;DHT22;52402;52.670;6.750;2023-05-07T13:25:31;22.10;99.90
60293;DHT22;52402;52.670;6.750;2023-05-07T13:27:57;22.10;99.90
60293;DHT22;52402;52.670;6.750;2023-05-07T13:30:23;22.10;99.90
60293;DHT22;52402;52.670;6.750;2023-05-07T13:32:48;21.80;99.90
60293;DHT22;52402;52.670;6.750;2023-05-07T13:35:15;21.60;99.90
60293;DHT22;52402;52.670;6.750;2023-05-07T13:37:41;21.50;99.90
60293;DHT22;52402;52.670;6.750;2023-05-07T13:40:07;21.60;99.90
60293;DHT22;52402;52.670;6.750;2023-05-07T13:42:33;21.70;99.90
60293;DHT22;52402;52.670;6.750;2023-05-07T13:44:58;21.70;99.90
60293;DHT22;52402;52.670;6.750;2023-05-07T13:47:24;21.60;99.90
60293;DHT22;52402;52.670;6.750;2023-05-07T13:49:50;21.50;99.90
60293;DHT22;52402;52.670;6.750;2023-05-07T13:52:16;21.30;99.90
60293;DHT22;52402;52.670;6.750;2023-05-07T13:54:42;21.10;99.90
60293;DHT22;52402;52.670;6.750;2023-05-07T13:57:07;20.80;99.90
60293;DHT22;52402;52.670;6.750;2023-05-07T13:59:33;20.70;99.90
60293;DHT22;52402;52.670;6.750;2023-05-07T14:01:59;20.50;99.90
60293;DHT22;52402;52.670;6.750;2023-05-07T14:04:25;20.40;99.90
60293;DHT22;52402;52.670;6.750;2023-05-07T14:06:51;20.30;99.90
60293;DHT22;52402;52.670;6.750;2023-05-07T14:09:16;20.20;99.90
60293;DHT22;52402;52.670;6.750;2023-05-07T14:11:42;20.20;99.90
60293;DHT22;52402;52.670;6.750;2023-05-07T14:14:08;20.10;99.90
60293;DHT22;52402;52.670;6.750;2023-05-07T14:16:36;20.10;99.90
60293;DHT22;52402;52.670;6.750;2023-05-07T14:19:02;20.00;99.90
60293;DHT22;52402;52.670;6.750;2023-05-07T14:21:27;20.10;99.90
60293;DHT22;52402;52.670;6.750;2023-05-07T14:23:53;20.20;99.90
60293;DHT22;52402;52.670;6.750;2023-05-07T14:26:19;20.30;99.90
60293;DHT22;52402;52.670;6.750;2023-05-07T14:28:46;20.40;99.90
60293;DHT22;52402;52.670;6.750;2023-05-07T14:31:12;20.70;99.90
60293;DHT22;52402;52.670;6.750;2023-05-07T14:33:38;20.90;99.90
60293;DHT22;52402;52.670;6.750;2023-05-07T14:36:03;21.10;99.90
60293;DHT22;52402;52.670;6.750;2023-05-07T14:38:29;21.30;99.90
60293;DHT22;52402;52.670;6.750;2023-05-07T14:40:55;21.70;99.90
60293;DHT22;52402;52.670;6.750;2023-05-07T14:43:22;22.10;99.90
60293;DHT22;52402;52.670;6.750;2023-05-07T14:45:47;22.10;99.90
60293;DHT22;52402;52.670;6.750;2023-05-07T14:48:13;22.00;99.90
60293;DHT22;52402;52.670;6.750;2023-05-07T14:50:41;22.20;99.90
60293;DHT22;52402;52.670;6.750;2023-05-07T14:53:07;22.20;99.90
60293;DHT22;52402;52.670;6.750;2023-05-07T14:55:34;22.10;99.90
60293;DHT22;52402;52.670;6.750;2023-05-07T14:58:00;22.10;99.90
60293;DHT22;52402;52.670;6.750;2023-05-07T15:00:26;22.00;99.90
60293;DHT22;52402;52.670;6.750;2023-05-07T15:02:51;21.80;99.90
60293;DHT22;52402;52.670;6.750;2023-05-07T15:05:17;21.80;99.90
60293;DHT22;52402;52.670;6.750;2023-05-07T15:07:44;21.70;99.90
60293;DHT22;52402;52.670;6.750;2023-05-07T15:10:10;21.70;99.90
60293;DHT22;52402;52.670;6.750;2023-05-07T15:12:36;21.60;99.90
60293;DHT22;52402;52.670;6.750;2023-05-07T15:15:01;21.40;99.90
60293;DHT22;52402;52.670;6.750;2023-05-07T15:17:27;21.20;99.90
60293;DHT22;52402;52.670;6.750;2023-05-07T15:19:53;21.10;99.90
60293;DHT22;52402;52.670;6.750;2023-05-07T15:22:19;21.00;99.90
60293;DHT22;52402;52.670;6.750;2023-05-07T15:24:46;20.90;99.90
60293;DHT22;52402;52.670;6.750;2023-05-07T15:27:12;20.90;99.90
60293;DHT22;52402;52.670;6.750;2023-05-07T15:29:37;20.90;99.90
60293;DHT22;52402;52.670;6.750;2023-05-07T15:32:03;20.90;99.90